sensor_id;sensor_type;location;lat;lon;timestamp;P1;durP1;ratioP1;P2;durP2;ratioP2
12348;SDS011;5974;42.710;27.258;2024-02-15T00:02:21;1.40;;;1.20;;
12348;SDS011;5974;42.710;27.258;2024-02-15T00:04:48;1.00;;;1.00;;
12348;SDS011;5974;42.710;27.258;2024-02-15T00:07:15;1.40;;;1.30;;
12348;SDS011;5974;42.710;27.258;2024-02-15T00:09:44;1.20;;;1.20;;
12348;SDS011;5974;42.710;27.258;2024-02-15T00:12:10;1.30;;;1.30;;
12348;SDS011;5974;42.710;27.258;2024-02-15T00:14:38;1.67;;;1.40;;
12348;SDS011;5974;42.710;27.258;2024-02-15T00:17:05;1.50;;;1.40;;
12348;SDS011;5974;42.710;27.258;2024-02-15T00:19:31;1.60;;;1.50;;
12348;SDS011;5974;42.710;27.258;2024-02-15T00:21:58;1.60;;;1.50;;
12348;SDS011;5974;42.710;27.258;2024-02-15T00:24:26;1.60;;;1.50;;
12348;SDS011;5974;42.710;27.258;2024-02-15T00:26:54;1.63;;;1.53;;
12348;SDS011;5974;42.710;27.258;2024-02-15T00:29:21;1.63;;;1.53;;
12348;SDS011;5974;42.710;27.258;2024-02-15T00:31:49;2.83;;;1.53;;
12348;SDS011;5974;42.710;27.258;2024-02-15T00:34:15;1.70;;;1.60;;
12348;SDS011;5974;42.710;27.258;2024-02-15T00:36:42;1.60;;;1.40;;
12348;SDS011;5974;42.710;27.258;2024-02-15T00:39:10;1.70;;;1.60;;
12348;SDS011;5974;42.710;27.258;2024-02-15T00:41:38;1.77;;;1.67;;
12348;SDS011;5974;42.710;27.258;2024-02-15T00:44:08;1.60;;;1.50;;
12348;SDS011;5974;42.710;27.258;2024-02-15T00:46:36;1.53;;;1.43;;
12348;SDS011;5974;42.710;27.258;2024-02-15T00:49:03;1.70;;;1.60;;
12348;SDS011;5974;42.710;27.258;2024-02-15T00:51:47;2.00;;;1.87;;
12348;SDS011;5974;42.710;27.258;2024-02-15T00:54:14;1.67;;;1.57;;
12348;SDS011;5974;42.710;27.258;2024-02-15T00:56:41;1.70;;;1.60;;
12348;SDS011;5974;42.710;27.258;2024-02-15T00:59:09;1.80;;;1.70;;
12348;SDS011;5974;42.710;27.258;2024-02-15T01:01:36;3.23;;;1.73;;
12348;SDS011;5974;42.710;27.258;2024-02-15T01:04:04;1.80;;;1.70;;
12348;SDS011;5974;42.710;27.258;2024-02-15T01:06:30;2.90;;;1.77;;
12348;SDS011;5974;42.710;27.258;2024-02-15T01:08:57;1.80;;;1.70;;
12348;SDS011;5974;42.710;27.258;2024-02-15T01:11:26;2.10;;;1.90;;
12348;SDS011;5974;42.710;27.258;2024-02-15T01:13:55;1.90;;;1.80;;
12348;SDS011;5974;42.710;27.258;2024-02-15T01:16:23;2.17;;;1.80;;
12348;SDS011;5974;42.710;27.258;2024-02-15T01:18:50;2.10;;;2.00;;
12348;SDS011;5974;42.710;27.258;2024-02-15T01:21:17;2.00;;;1.80;;
12348;SDS011;5974;42.710;27.258;2024-02-15T01:23:44;2.03;;;1.70;;
12348;SDS011;5974;42.710;27.258;2024-02-15T01:26:11;3.13;;;2.00;;
12348;SDS011;5974;42.710;27.258;2024-02-15T01:28:39;2.00;;;1.80;;
12348;SDS011;5974;42.710;27.258;2024-02-15T01:31:08;4.80;;;2.30;;
12348;SDS011;5974;42.710;27.258;2024-02-15T01:33:37;2.10;;;1.90;;
12348;SDS011;5974;42.710;27.258;2024-02-15T01:36:04;3.67;;;2.57;;
12348;SDS011;5974;42.710;27.258;2024-02-15T01:38:31;2.27;;;2.07;;
12348;SDS011;5974;42.710;27.258;2024-02-15T01:40:58;2.63;;;2.33;;
12348;SDS011;5974;42.710;27.258;2024-02-15T01:43:25;2.67;;;2.37;;
12348;SDS011;5974;42.710;27.258;2024-02-15T01:45:52;2.33;;;2.10;;
12348;SDS011;5974;42.710;27.258;2024-02-15T01:48:19;2.43;;;2.17;;
12348;SDS011;5974;42.710;27.258;2024-02-15T01:50:47;2.43;;;2.27;;
12348;SDS011;5974;42.710;27.258;2024-02-15T01:53:16;3.97;;;2.20;;
12348;SDS011;5974;42.710;27.258;2024-02-15T01:55:43;2.53;;;2.27;;
12348;SDS011;5974;42.710;27.258;2024-02-15T01:58:10;2.60;;;2.40;;
12348;SDS011;5974;42.710;27.258;2024-02-15T02:00:37;3.30;;;2.30;;
12348;SDS011;5974;42.710;27.258;2024-02-15T02:03:05;2.67;;;2.47;;
12348;SDS011;5974;42.710;27.258;2024-02-15T02:05:32;2.50;;;2.30;;
12348;SDS011;5974;42.710;27.258;2024-02-15T02:08:00;3.10;;;2.80;;
12348;SDS011;5974;42.710;27.258;2024-02-15T02:10:29;2.70;;;2.50;;
12348;SDS011;5974;42.710;27.258;2024-02-15T02:12:57;3.10;;;2.83;;
12348;SDS011;5974;42.710;27.258;2024-02-15T02:15:26;2.80;;;2.60;;
12348;SDS011;5974;42.710;27.258;2024-02-15T02:17:53;3.50;;;2.90;;
12348;SDS011;5974;42.710;27.258;2024-02-15T02:20:20;3.37;;;3.07;;
12348;SDS011;5974;42.710;27.258;2024-02-15T02:22:46;3.50;;;2.53;;
12348;SDS011;5974;42.710;27.258;2024-02-15T02:25:18;3.07;;;2.60;;
12348;SDS011;5974;42.710;27.258;2024-02-15T02:27:45;3.23;;;2.80;;
12348;SDS011;5974;42.710;27.258;2024-02-15T02:30:14;2.67;;;2.47;;
12348;SDS011;5974;42.710;27.258;2024-02-15T02:32:44;3.20;;;2.90;;
12348;SDS011;5974;42.710;27.258;2024-02-15T02:35:11;2.93;;;2.60;;
12348;SDS011;5974;42.710;27.258;2024-02-15T02:37:38;3.53;;;2.70;;
12348;SDS011;5974;42.710;27.258;2024-02-15T02:40:05;3.60;;;3.10;;
12348;SDS011;5974;42.710;27.258;2024-02-15T02:42:35;3.93;;;3.03;;
12348;SDS011;5974;42.710;27.258;2024-02-15T02:45:03;3.83;;;3.00;;
12348;SDS011;5974;42.710;27.258;2024-02-15T02:47:31;3.20;;;2.90;;
12348;SDS011;5974;42.710;27.258;2024-02-15T02:49:58;3.47;;;2.80;;
12348;SDS011;5974;42.710;27.258;2024-02-15T02:52:24;2.90;;;2.70;;
12348;SDS011;5974;42.710;27.258;2024-02-15T02:54:51;3.60;;;2.90;;
12348;SDS011;5974;42.710;27.258;2024-02-15T02:57:18;4.30;;;2.50;;
12348;SDS011;5974;42.710;27.258;2024-02-15T02:59:46;3.70;;;2.80;;
12348;SDS011;5974;42.710;27.258;2024-02-15T03:02:13;4.10;;;2.90;;
12348;SDS011;5974;42.710;27.258;2024-02-15T03:04:40;3.90;;;2.80;;
12348;SDS011;5974;42.710;27.258;2024-02-15T03:07:06;3.80;;;2.50;;
12348;SDS011;5974;42.710;27.258;2024-02-15T03:09:34;3.87;;;2.87;;
12348;SDS011;5974;42.710;27.258;2024-02-15T03:12:02;4.57;;;3.33;;
12348;SDS011;5974;42.710;27.258;2024-02-15T03:14:29;2.73;;;2.20;;
12348;SDS011;5974;42.710;27.258;2024-02-15T03:16:57;3.93;;;2.57;;
12348;SDS011;5974;42.710;27.258;2024-02-15T03:19:24;3.17;;;2.53;;
12348;SDS011;5974;42.710;27.258;2024-02-15T03:21:51;3.00;;;2.70;;
12348;SDS011;5974;42.710;27.258;2024-02-15T03:24:18;2.77;;;2.57;;
12348;SDS011;5974;42.710;27.258;2024-02-15T03:26:45;2.97;;;2.70;;
12348;SDS011;5974;42.710;27.258;2024-02-15T03:29:12;3.17;;;2.87;;
12348;SDS011;5974;42.710;27.258;2024-02-15T03:31:39;3.10;;;2.90;;
12348;SDS011;5974;42.710;27.258;2024-02-15T03:34:07;4.33;;;3.20;;
12348;SDS011;5974;42.710;27.258;2024-02-15T03:36:36;4.40;;;3.20;;
12348;SDS011;5974;42.710;27.258;2024-02-15T03:39:02;5.17;;;3.17;;
12348;SDS011;5974;42.710;27.258;2024-02-15T03:41:31;4.20;;;3.23;;
12348;SDS011;5974;42.710;27.258;2024-02-15T03:43:58;3.63;;;3.33;;
12348;SDS011;5974;42.710;27.258;2024-02-15T03:46:25;3.70;;;3.00;;
12348;SDS011;5974;42.710;27.258;2024-02-15T03:48:53;3.80;;;3.30;;
12348;SDS011;5974;42.710;27.258;2024-02-15T03:51:22;3.87;;;3.47;;
12348;SDS011;5974;42.710;27.258;2024-02-15T03:53:49;3.70;;;3.40;;
12348;SDS011;5974;42.710;27.258;2024-02-15T03:56:17;5.10;;;3.27;;
12348;SDS011;5974;42.710;27.258;2024-02-15T03:58:44;4.43;;;3.47;;
12348;SDS011;5974;42.710;27.258;2024-02-15T04:01:11;5.83;;;2.90;;
12348;SDS011;5974;42.710;27.258;2024-02-15T04:03:40;4.57;;;3.03;;
12348;SDS011;5974;42.710;27.258;2024-02-15T04:06:07;3.60;;;3.30;;
12348;SDS011;5974;42.710;27.258;2024-02-15T04:08:35;3.97;;;3.10;;
12348;SDS011;5974;42.710;27.258;2024-02-15T04:11:04;3.70;;;3.30;;
12348;SDS011;5974;42.710;27.258;2024-02-15T04:13:31;4.53;;;3.20;;
12348;SDS011;5974;42.710;27.258;2024-02-15T04:15:58;4.93;;;3.13;;
12348;SDS011;5974;42.710;27.258;2024-02-15T04:18:25;3.80;;;3.30;;
12348;SDS011;5974;42.710;27.258;2024-02-15T04:20:51;4.43;;;2.97;;
12348;SDS011;5974;42.710;27.258;2024-02-15T04:23:18;3.83;;;3.23;;
12348;SDS011;5974;42.710;27.258;2024-02-15T04:25:47;3.50;;;3.20;;
12348;SDS011;5974;42.710;27.258;2024-02-15T04:28:16;3.20;;;2.90;;
12348;SDS011;5974;42.710;27.258;2024-02-15T04:30:43;3.63;;;3.00;;
12348;SDS011;5974;42.710;27.258;2024-02-15T04:33:12;5.23;;;2.93;;
12348;SDS011;5974;42.710;27.258;2024-02-15T04:35:40;5.27;;;3.37;;
12348;SDS011;5974;42.710;27.258;2024-02-15T04:38:07;5.37;;;3.33;;
12348;SDS011;5974;42.710;27.258;2024-02-15T04:40:34;3.23;;;2.80;;
12348;SDS011;5974;42.710;27.258;2024-02-15T04:43:05;3.90;;;2.90;;
12348;SDS011;5974;42.710;27.258;2024-02-15T04:45:32;4.53;;;3.27;;
12348;SDS011;5974;42.710;27.258;2024-02-15T04:47:59;4.17;;;3.30;;
12348;SDS011;5974;42.710;27.258;2024-02-15T04:50:27;3.50;;;3.20;;
12348;SDS011;5974;42.710;27.258;2024-02-15T04:52:54;3.63;;;3.30;;
12348;SDS011;5974;42.710;27.258;2024-02-15T04:55:21;3.33;;;3.03;;
12348;SDS011;5974;42.710;27.258;2024-02-15T04:57:48;3.20;;;2.90;;
12348;SDS011;5974;42.710;27.258;2024-02-15T05:00:21;3.33;;;2.97;;
12348;SDS011;5974;42.710;27.258;2024-02-15T05:02:50;2.73;;;2.50;;
12348;SDS011;5974;42.710;27.258;2024-02-15T05:05:17;3.30;;;2.90;;
12348;SDS011;5974;42.710;27.258;2024-02-15T05:07:45;3.27;;;2.77;;
12348;SDS011;5974;42.710;27.258;2024-02-15T05:10:14;4.03;;;3.03;;
12348;SDS011;5974;42.710;27.258;2024-02-15T05:12:41;3.73;;;3.30;;
12348;SDS011;5974;42.710;27.258;2024-02-15T05:15:09;3.50;;;3.10;;
12348;SDS011;5974;42.710;27.258;2024-02-15T05:17:38;3.73;;;3.07;;
12348;SDS011;5974;42.710;27.258;2024-02-15T05:20:07;4.53;;;3.30;;
12348;SDS011;5974;42.710;27.258;2024-02-15T05:22:37;3.23;;;2.93;;
12348;SDS011;5974;42.710;27.258;2024-02-15T05:25:05;6.20;;;3.00;;
12348;SDS011;5974;42.710;27.258;2024-02-15T05:27:33;3.87;;;2.93;;
12348;SDS011;5974;42.710;27.258;2024-02-15T05:30:01;3.33;;;2.50;;
12348;SDS011;5974;42.710;27.258;2024-02-15T05:32:32;4.40;;;2.90;;
12348;SDS011;5974;42.710;27.258;2024-02-15T05:35:08;5.93;;;2.93;;
12348;SDS011;5974;42.710;27.258;2024-02-15T05:37:35;4.80;;;2.90;;
12348;SDS011;5974;42.710;27.258;2024-02-15T05:40:01;3.07;;;2.80;;
12348;SDS011;5974;42.710;27.258;2024-02-15T05:42:29;5.83;;;2.80;;
12348;SDS011;5974;42.710;27.258;2024-02-15T05:44:57;3.37;;;2.83;;
12348;SDS011;5974;42.710;27.258;2024-02-15T05:47:54;3.60;;;3.00;;
12348;SDS011;5974;42.710;27.258;2024-02-15T05:50:23;3.73;;;3.30;;
12348;SDS011;5974;42.710;27.258;2024-02-15T05:52:52;4.13;;;3.37;;
12348;SDS011;5974;42.710;27.258;2024-02-15T05:55:20;4.80;;;3.20;;
12348;SDS011;5974;42.710;27.258;2024-02-15T05:57:47;4.40;;;3.00;;
12348;SDS011;5974;42.710;27.258;2024-02-15T06:00:14;4.67;;;3.00;;
12348;SDS011;5974;42.710;27.258;2024-02-15T06:02:43;4.73;;;3.17;;
12348;SDS011;5974;42.710;27.258;2024-02-15T06:05:10;4.13;;;3.33;;
12348;SDS011;5974;42.710;27.258;2024-02-15T06:07:38;5.33;;;3.63;;
12348;SDS011;5974;42.710;27.258;2024-02-15T06:10:05;3.57;;;3.20;;
12348;SDS011;5974;42.710;27.258;2024-02-15T06:12:33;5.13;;;3.90;;
12348;SDS011;5974;42.710;27.258;2024-02-15T06:14:59;3.73;;;3.33;;
12348;SDS011;5974;42.710;27.258;2024-02-15T06:17:30;7.07;;;4.20;;
12348;SDS011;5974;42.710;27.258;2024-02-15T06:19:57;7.63;;;3.67;;
12348;SDS011;5974;42.710;27.258;2024-02-15T06:22:24;3.47;;;3.13;;
12348;SDS011;5974;42.710;27.258;2024-02-15T06:24:53;5.07;;;3.77;;
12348;SDS011;5974;42.710;27.258;2024-02-15T06:27:20;5.67;;;3.80;;
12348;SDS011;5974;42.710;27.258;2024-02-15T06:29:49;5.53;;;3.97;;
12348;SDS011;5974;42.710;27.258;2024-02-15T06:32:33;4.53;;;3.90;;
12348;SDS011;5974;42.710;27.258;2024-02-15T06:35:17;6.03;;;4.30;;
12348;SDS011;5974;42.710;27.258;2024-02-15T06:38:01;5.80;;;4.00;;
12348;SDS011;5974;42.710;27.258;2024-02-15T06:40:47;4.73;;;3.60;;
12348;SDS011;5974;42.710;27.258;2024-02-15T06:43:14;4.43;;;3.80;;
12348;SDS011;5974;42.710;27.258;2024-02-15T06:45:41;7.27;;;3.87;;
12348;SDS011;5974;42.710;27.258;2024-02-15T06:48:11;6.30;;;4.67;;
12348;SDS011;5974;42.710;27.258;2024-02-15T06:50:38;4.80;;;3.97;;
12348;SDS011;5974;42.710;27.258;2024-02-15T06:53:06;3.90;;;3.43;;
12348;SDS011;5974;42.710;27.258;2024-02-15T06:55:33;4.70;;;3.90;;
12348;SDS011;5974;42.710;27.258;2024-02-15T06:58:03;5.17;;;4.03;;
12348;SDS011;5974;42.710;27.258;2024-02-15T07:00:30;7.10;;;3.80;;
12348;SDS011;5974;42.710;27.258;2024-02-15T07:02:57;5.13;;;4.07;;
12348;SDS011;5974;42.710;27.258;2024-02-15T07:05:24;9.37;;;4.07;;
12348;SDS011;5974;42.710;27.258;2024-02-15T07:07:53;5.27;;;3.80;;
12348;SDS011;5974;42.710;27.258;2024-02-15T07:10:20;4.80;;;4.00;;
12348;SDS011;5974;42.710;27.258;2024-02-15T07:12:47;5.87;;;4.10;;
12348;SDS011;5974;42.710;27.258;2024-02-15T07:15:16;6.07;;;3.77;;
12348;SDS011;5974;42.710;27.258;2024-02-15T07:17:43;10.87;;;4.10;;
12348;SDS011;5974;42.710;27.258;2024-02-15T07:20:10;5.17;;;4.07;;
12348;SDS011;5974;42.710;27.258;2024-02-15T07:22:39;6.50;;;4.00;;
12348;SDS011;5974;42.710;27.258;2024-02-15T07:25:06;7.63;;;3.90;;
12348;SDS011;5974;42.710;27.258;2024-02-15T07:27:34;8.30;;;4.27;;
12348;SDS011;5974;42.710;27.258;2024-02-15T07:30:00;5.83;;;4.23;;
12348;SDS011;5974;42.710;27.258;2024-02-15T07:32:30;5.47;;;4.00;;
12348;SDS011;5974;42.710;27.258;2024-02-15T07:35:00;5.40;;;3.90;;
12348;SDS011;5974;42.710;27.258;2024-02-15T07:37:27;6.63;;;5.83;;
12348;SDS011;5974;42.710;27.258;2024-02-15T07:39:54;6.57;;;4.20;;
12348;SDS011;5974;42.710;27.258;2024-02-15T07:42:21;5.43;;;4.13;;
12348;SDS011;5974;42.710;27.258;2024-02-15T07:44:50;5.00;;;4.37;;
12348;SDS011;5974;42.710;27.258;2024-02-15T07:47:17;5.80;;;4.00;;
12348;SDS011;5974;42.710;27.258;2024-02-15T07:49:50;7.07;;;4.07;;
12348;SDS011;5974;42.710;27.258;2024-02-15T07:52:16;4.50;;;4.10;;
12348;SDS011;5974;42.710;27.258;2024-02-15T07:54:44;5.20;;;4.00;;
12348;SDS011;5974;42.710;27.258;2024-02-15T07:57:11;4.30;;;3.90;;
12348;SDS011;5974;42.710;27.258;2024-02-15T07:59:39;4.97;;;3.60;;
12348;SDS011;5974;42.710;27.258;2024-02-15T08:02:07;4.73;;;4.17;;
12348;SDS011;5974;42.710;27.258;2024-02-15T08:04:34;6.17;;;4.23;;
12348;SDS011;5974;42.710;27.258;2024-02-15T08:07:07;5.40;;;4.43;;
12348;SDS011;5974;42.710;27.258;2024-02-15T08:09:36;7.27;;;4.40;;
12348;SDS011;5974;42.710;27.258;2024-02-15T08:12:03;7.00;;;3.80;;
12348;SDS011;5974;42.710;27.258;2024-02-15T08:14:30;5.50;;;4.00;;
12348;SDS011;5974;42.710;27.258;2024-02-15T08:16:57;5.60;;;3.57;;
12348;SDS011;5974;42.710;27.258;2024-02-15T08:19:24;5.33;;;3.87;;
12348;SDS011;5974;42.710;27.258;2024-02-15T08:21:54;5.80;;;4.60;;
12348;SDS011;5974;42.710;27.258;2024-02-15T08:24:22;5.67;;;3.90;;
12348;SDS011;5974;42.710;27.258;2024-02-15T08:26:49;5.13;;;3.63;;
12348;SDS011;5974;42.710;27.258;2024-02-15T08:29:17;5.97;;;3.83;;
12348;SDS011;5974;42.710;27.258;2024-02-15T08:31:45;4.30;;;3.80;;
12348;SDS011;5974;42.710;27.258;2024-02-15T08:34:12;4.53;;;3.60;;
12348;SDS011;5974;42.710;27.258;2024-02-15T08:36:39;4.17;;;3.80;;
12348;SDS011;5974;42.710;27.258;2024-02-15T08:39:06;6.20;;;3.37;;
12348;SDS011;5974;42.710;27.258;2024-02-15T08:41:36;5.97;;;3.80;;
12348;SDS011;5974;42.710;27.258;2024-02-15T08:44:04;4.30;;;3.70;;
12348;SDS011;5974;42.710;27.258;2024-02-15T08:46:36;4.37;;;3.60;;
12348;SDS011;5974;42.710;27.258;2024-02-15T08:49:03;5.73;;;3.20;;
12348;SDS011;5974;42.710;27.258;2024-02-15T08:51:30;4.27;;;3.50;;
12348;SDS011;5974;42.710;27.258;2024-02-15T08:53:57;5.10;;;3.47;;
12348;SDS011;5974;42.710;27.258;2024-02-15T08:56:24;5.53;;;4.00;;
12348;SDS011;5974;42.710;27.258;2024-02-15T08:58:52;4.83;;;4.10;;
12348;SDS011;5974;42.710;27.258;2024-02-15T09:01:19;3.67;;;3.37;;
12348;SDS011;5974;42.710;27.258;2024-02-15T09:03:49;4.40;;;3.70;;
12348;SDS011;5974;42.710;27.258;2024-02-15T09:06:16;7.97;;;4.43;;
12348;SDS011;5974;42.710;27.258;2024-02-15T09:08:42;4.33;;;3.67;;
12348;SDS011;5974;42.710;27.258;2024-02-15T09:11:09;5.10;;;4.20;;
12348;SDS011;5974;42.710;27.258;2024-02-15T09:13:37;4.23;;;3.83;;
12348;SDS011;5974;42.710;27.258;2024-02-15T09:16:06;7.30;;;5.63;;
12348;SDS011;5974;42.710;27.258;2024-02-15T09:18:32;7.20;;;4.50;;
12348;SDS011;5974;42.710;27.258;2024-02-15T09:20:59;8.33;;;4.43;;
12348;SDS011;5974;42.710;27.258;2024-02-15T09:23:26;5.50;;;4.83;;
12348;SDS011;5974;42.710;27.258;2024-02-15T09:25:53;7.43;;;4.90;;
12348;SDS011;5974;42.710;27.258;2024-02-15T09:28:19;6.83;;;4.90;;
12348;SDS011;5974;42.710;27.258;2024-02-15T09:30:48;5.33;;;4.60;;
12348;SDS011;5974;42.710;27.258;2024-02-15T09:33:18;5.03;;;4.30;;
12348;SDS011;5974;42.710;27.258;2024-02-15T09:35:45;4.53;;;3.90;;
12348;SDS011;5974;42.710;27.258;2024-02-15T09:38:13;6.53;;;4.37;;
12348;SDS011;5974;42.710;27.258;2024-02-15T09:40:42;7.17;;;4.40;;
12348;SDS011;5974;42.710;27.258;2024-02-15T09:43:09;5.03;;;4.53;;
12348;SDS011;5974;42.710;27.258;2024-02-15T09:45:38;4.97;;;4.50;;
12348;SDS011;5974;42.710;27.258;2024-02-15T09:48:05;5.30;;;4.70;;
12348;SDS011;5974;42.710;27.258;2024-02-15T09:50:35;6.17;;;4.33;;
12348;SDS011;5974;42.710;27.258;2024-02-15T09:53:07;6.83;;;5.30;;
12348;SDS011;5974;42.710;27.258;2024-02-15T09:55:35;5.83;;;4.50;;
12348;SDS011;5974;42.710;27.258;2024-02-15T09:58:02;7.33;;;4.90;;
12348;SDS011;5974;42.710;27.258;2024-02-15T10:00:31;6.33;;;5.40;;
12348;SDS011;5974;42.710;27.258;2024-02-15T10:03:00;5.97;;;4.50;;
12348;SDS011;5974;42.710;27.258;2024-02-15T10:05:28;6.00;;;5.40;;
12348;SDS011;5974;42.710;27.258;2024-02-15T10:07:57;7.63;;;5.03;;
12348;SDS011;5974;42.710;27.258;2024-02-15T10:10:27;7.37;;;5.37;;
12348;SDS011;5974;42.710;27.258;2024-02-15T10:12:54;6.43;;;5.57;;
12348;SDS011;5974;42.710;27.258;2024-02-15T10:15:31;6.57;;;5.30;;
12348;SDS011;5974;42.710;27.258;2024-02-15T10:18:01;5.73;;;5.13;;
12348;SDS011;5974;42.710;27.258;2024-02-15T10:20:28;5.87;;;5.30;;
12348;SDS011;5974;42.710;27.258;2024-02-15T10:25:42;6.23;;;5.33;;
12348;SDS011;5974;42.710;27.258;2024-02-15T10:28:10;8.20;;;6.13;;
12348;SDS011;5974;42.710;27.258;2024-02-15T10:30:42;6.43;;;5.27;;
12348;SDS011;5974;42.710;27.258;2024-02-15T10:33:10;6.73;;;5.00;;
12348;SDS011;5974;42.710;27.258;2024-02-15T10:35:45;6.30;;;5.70;;
12348;SDS011;5974;42.710;27.258;2024-02-15T10:38:14;6.60;;;5.60;;
12348;SDS011;5974;42.710;27.258;2024-02-15T10:40:41;5.87;;;5.33;;
12348;SDS011;5974;42.710;27.258;2024-02-15T10:43:09;7.53;;;5.97;;
12348;SDS011;5974;42.710;27.258;2024-02-15T10:45:38;11.23;;;5.50;;
12348;SDS011;5974;42.710;27.258;2024-02-15T10:48:08;8.03;;;5.83;;
12348;SDS011;5974;42.710;27.258;2024-02-15T10:50:35;7.23;;;5.80;;
12348;SDS011;5974;42.710;27.258;2024-02-15T10:53:07;6.90;;;6.20;;
12348;SDS011;5974;42.710;27.258;2024-02-15T10:55:48;6.57;;;5.60;;
12348;SDS011;5974;42.710;27.258;2024-02-15T10:58:24;7.40;;;5.90;;
12348;SDS011;5974;42.710;27.258;2024-02-15T11:00:54;7.60;;;5.67;;
12348;SDS011;5974;42.710;27.258;2024-02-15T11:03:23;6.00;;;5.40;;
12348;SDS011;5974;42.710;27.258;2024-02-15T11:05:54;7.13;;;6.23;;
12348;SDS011;5974;42.710;27.258;2024-02-15T11:08:28;8.17;;;6.33;;
12348;SDS011;5974;42.710;27.258;2024-02-15T11:10:55;8.73;;;6.20;;
12348;SDS011;5974;42.710;27.258;2024-02-15T11:13:24;7.53;;;6.37;;
12348;SDS011;5974;42.710;27.258;2024-02-15T11:15:51;7.63;;;6.60;;
12348;SDS011;5974;42.710;27.258;2024-02-15T11:21:16;7.43;;;6.50;;
12348;SDS011;5974;42.710;27.258;2024-02-15T11:23:45;8.50;;;7.43;;
12348;SDS011;5974;42.710;27.258;2024-02-15T11:35:05;7.43;;;6.73;;
12348;SDS011;5974;42.710;27.258;2024-02-15T11:37:58;7.80;;;7.00;;
12348;SDS011;5974;42.710;27.258;2024-02-15T11:40:26;8.03;;;7.23;;
12348;SDS011;5974;42.710;27.258;2024-02-15T11:42:54;9.63;;;8.60;;
12348;SDS011;5974;42.710;27.258;2024-02-15T11:45:22;8.80;;;7.20;;
12348;SDS011;5974;42.710;27.258;2024-02-15T11:47:50;11.50;;;7.00;;
12348;SDS011;5974;42.710;27.258;2024-02-15T11:50:19;8.93;;;6.77;;
12348;SDS011;5974;42.710;27.258;2024-02-15T11:52:47;10.57;;;7.20;;
12348;SDS011;5974;42.710;27.258;2024-02-15T11:55:17;9.17;;;7.10;;
12348;SDS011;5974;42.710;27.258;2024-02-15T11:57:55;10.70;;;7.13;;
12348;SDS011;5974;42.710;27.258;2024-02-15T12:00:29;8.60;;;6.90;;
12348;SDS011;5974;42.710;27.258;2024-02-15T12:03:14;8.13;;;6.90;;
12348;SDS011;5974;42.710;27.258;2024-02-15T12:05:59;9.50;;;7.20;;
12348;SDS011;5974;42.710;27.258;2024-02-15T12:08:44;9.47;;;6.83;;
12348;SDS011;5974;42.710;27.258;2024-02-15T12:11:29;7.33;;;6.57;;
12348;SDS011;5974;42.710;27.258;2024-02-15T12:14:15;6.67;;;6.07;;
12348;SDS011;5974;42.710;27.258;2024-02-15T12:17:00;9.80;;;7.50;;
12348;SDS011;5974;42.710;27.258;2024-02-15T12:19:44;8.77;;;7.00;;
12348;SDS011;5974;42.710;27.258;2024-02-15T12:22:13;11.23;;;6.80;;
12348;SDS011;5974;42.710;27.258;2024-02-15T12:24:40;8.60;;;6.43;;
12348;SDS011;5974;42.710;27.258;2024-02-15T12:27:07;8.73;;;6.80;;
12348;SDS011;5974;42.710;27.258;2024-02-15T12:29:35;10.77;;;7.13;;
12348;SDS011;5974;42.710;27.258;2024-02-15T12:32:02;9.47;;;6.90;;
12348;SDS011;5974;42.710;27.258;2024-02-15T12:34:30;11.57;;;7.30;;
12348;SDS011;5974;42.710;27.258;2024-02-15T12:37:06;7.93;;;7.10;;
12348;SDS011;5974;42.710;27.258;2024-02-15T12:39:34;9.37;;;6.80;;
12348;SDS011;5974;42.710;27.258;2024-02-15T12:42:02;10.23;;;7.03;;
12348;SDS011;5974;42.710;27.258;2024-02-15T12:44:36;6.17;;;5.57;;
12348;SDS011;5974;42.710;27.258;2024-02-15T12:47:02;8.13;;;6.43;;
12348;SDS011;5974;42.710;27.258;2024-02-15T12:49:31;8.00;;;6.70;;
12348;SDS011;5974;42.710;27.258;2024-02-15T12:55:11;8.40;;;6.80;;
12348;SDS011;5974;42.710;27.258;2024-02-15T12:57:39;6.87;;;6.23;;
12348;SDS011;5974;42.710;27.258;2024-02-15T13:00:11;5.93;;;5.33;;
12348;SDS011;5974;42.710;27.258;2024-02-15T13:02:43;8.90;;;6.33;;
12348;SDS011;5974;42.710;27.258;2024-02-15T13:05:11;7.70;;;6.90;;
12348;SDS011;5974;42.710;27.258;2024-02-15T13:07:38;7.97;;;6.27;;
12348;SDS011;5974;42.710;27.258;2024-02-15T13:10:06;6.97;;;6.27;;
12348;SDS011;5974;42.710;27.258;2024-02-15T13:12:33;7.53;;;6.23;;
12348;SDS011;5974;42.710;27.258;2024-02-15T13:15:01;7.00;;;6.10;;
12348;SDS011;5974;42.710;27.258;2024-02-15T13:17:31;6.23;;;5.63;;
12348;SDS011;5974;42.710;27.258;2024-02-15T13:19:59;6.47;;;5.70;;
12348;SDS011;5974;42.710;27.258;2024-02-15T13:22:30;8.10;;;6.20;;
12348;SDS011;5974;42.710;27.258;2024-02-15T13:24:58;6.67;;;5.97;;
12348;SDS011;5974;42.710;27.258;2024-02-15T13:27:25;7.10;;;6.27;;
12348;SDS011;5974;42.710;27.258;2024-02-15T13:29:52;7.27;;;5.70;;
12348;SDS011;5974;42.710;27.258;2024-02-15T13:32:20;11.97;;;5.77;;
12348;SDS011;5974;42.710;27.258;2024-02-15T13:34:48;6.10;;;5.50;;
12348;SDS011;5974;42.710;27.258;2024-02-15T13:37:17;6.40;;;5.43;;
12348;SDS011;5974;42.710;27.258;2024-02-15T13:39:45;6.20;;;5.60;;
12348;SDS011;5974;42.710;27.258;2024-02-15T13:42:13;7.77;;;5.83;;
12348;SDS011;5974;42.710;27.258;2024-02-15T13:44:40;8.37;;;6.00;;
12348;SDS011;5974;42.710;27.258;2024-02-15T13:47:06;7.87;;;5.83;;
12348;SDS011;5974;42.710;27.258;2024-02-15T13:49:33;6.83;;;5.87;;
12348;SDS011;5974;42.710;27.258;2024-02-15T13:52:02;7.60;;;5.40;;
12348;SDS011;5974;42.710;27.258;2024-02-15T13:54:29;8.30;;;5.87;;
12348;SDS011;5974;42.710;27.258;2024-02-15T13:56:56;5.63;;;5.03;;
12348;SDS011;5974;42.710;27.258;2024-02-15T13:59:23;7.80;;;5.80;;
12348;SDS011;5974;42.710;27.258;2024-02-15T14:01:50;5.80;;;5.20;;
12348;SDS011;5974;42.710;27.258;2024-02-15T14:04:18;5.77;;;5.17;;
12348;SDS011;5974;42.710;27.258;2024-02-15T14:06:46;5.63;;;5.07;;
12348;SDS011;5974;42.710;27.258;2024-02-15T14:09:15;6.90;;;5.60;;
12348;SDS011;5974;42.710;27.258;2024-02-15T14:11:42;6.27;;;5.50;;
12348;SDS011;5974;42.710;27.258;2024-02-15T14:14:09;6.97;;;5.50;;
12348;SDS011;5974;42.710;27.258;2024-02-15T14:16:36;6.40;;;5.30;;
12348;SDS011;5974;42.710;27.258;2024-02-15T14:19:03;5.93;;;5.33;;
12348;SDS011;5974;42.710;27.258;2024-02-15T14:21:31;5.90;;;5.40;;
12348;SDS011;5974;42.710;27.258;2024-02-15T14:24:04;10.83;;;5.57;;
12348;SDS011;5974;42.710;27.258;2024-02-15T14:26:35;5.80;;;5.30;;
12348;SDS011;5974;42.710;27.258;2024-02-15T14:29:01;5.73;;;5.23;;
12348;SDS011;5974;42.710;27.258;2024-02-15T14:31:28;5.67;;;5.17;;
12348;SDS011;5974;42.710;27.258;2024-02-15T14:34:12;6.80;;;5.53;;
12348;SDS011;5974;42.710;27.258;2024-02-15T14:36:40;6.00;;;5.37;;
12348;SDS011;5974;42.710;27.258;2024-02-15T14:39:07;5.87;;;5.37;;
12348;SDS011;5974;42.710;27.258;2024-02-15T14:41:36;5.80;;;5.03;;
12348;SDS011;5974;42.710;27.258;2024-02-15T14:44:03;6.30;;;5.80;;
12348;SDS011;5974;42.710;27.258;2024-02-15T14:46:30;6.23;;;5.63;;
12348;SDS011;5974;42.710;27.258;2024-02-15T14:49:00;6.00;;;5.40;;
12348;SDS011;5974;42.710;27.258;2024-02-15T14:51:27;8.70;;;5.10;;
12348;SDS011;5974;42.710;27.258;2024-02-15T14:53:54;6.00;;;5.17;;
12348;SDS011;5974;42.710;27.258;2024-02-15T14:56:21;6.77;;;5.67;;
12348;SDS011;5974;42.710;27.258;2024-02-15T14:58:49;5.67;;;5.10;;
12348;SDS011;5974;42.710;27.258;2024-02-15T15:01:15;8.53;;;5.80;;
12348;SDS011;5974;42.710;27.258;2024-02-15T15:03:45;8.97;;;5.50;;
12348;SDS011;5974;42.710;27.258;2024-02-15T15:06:20;8.40;;;5.30;;
12348;SDS011;5974;42.710;27.258;2024-02-15T15:09:04;6.33;;;5.00;;
12348;SDS011;5974;42.710;27.258;2024-02-15T15:11:49;5.33;;;4.83;;
12348;SDS011;5974;42.710;27.258;2024-02-15T15:14:34;5.83;;;5.23;;
12348;SDS011;5974;42.710;27.258;2024-02-15T15:17:02;5.50;;;4.97;;